sensor_id;sensor_type;location;lat;lon;timestamp;pressure;altitude;pressure_sealevel;temperature;humidity
44926;BME280;30662;51.210;7.656;2023-03-05T00:00:47;149274.03;;;1.83;100.00
44926;BME280;30662;51.210;7.656;2023-03-05T00:03:13;149272.78;;;1.82;100.00
44926;BME280;30662;51.210;7.656;2023-03-05T00:05:40;149240.09;;;1.69;100.00
44926;BME280;30662;51.210;7.656;2023-03-05T00:08:06;149248.88;;;1.73;100.00
44926;BME280;30662;51.210;7.656;2023-03-05T00:10:32;149275.28;;;1.83;100.00
44926;BME280;30662;51.210;7.656;2023-03-05T00:12:58;149257.69;;;1.76;100.00
44926;BME280;30662;51.210;7.656;2023-03-05T00:15:24;149274.03;;;1.83;100.00
44926;BME280;30662;51.210;7.656;2023-03-05T00:17:50;149263.97;;;1.79;100.00
44926;BME280;30662;51.210;7.656;2023-03-05T00:20:16;149267.72;;;1.80;100.00
44926;BME280;30662;51.210;7.656;2023-03-05T00:22:42;149280.31;;;1.85;100.00
44926;BME280;30662;51.210;7.656;2023-03-05T00:25:08;149280.31;;;1.85;100.00
44926;BME280;30662;51.210;7.656;2023-03-05T00:27:34;149292.91;;;1.90;100.00
44926;BME280;30662;51.210;7.656;2023-03-05T00:30:00;149320.53;;;2.02;100.00
44926;BME280;30662;51.210;7.656;2023-03-05T00:32:26;149286.59;;;1.88;100.00
44926;BME280;30662;51.210;7.656;2023-03-05T00:34:52;149289.13;;;1.89;100.00
44926;BME280;30662;51.210;7.656;2023-03-05T00:37:18;149287.88;;;1.88;100.00
44926;BME280;30662;51.210;7.656;2023-03-05T00:39:44;149279.06;;;1.85;100.00
44926;BME280;30662;51.210;7.656;2023-03-05T00:42:10;149267.72;;;1.80;100.00
44926;BME280;30662;51.210;7.656;2023-03-05T00:44:35;149268.97;;;1.81;100.00
44926;BME280;30662;51.210;7.656;2023-03-05T00:47:01;149279.06;;;1.85;100.00
44926;BME280;30662;51.210;7.656;2023-03-05T00:49:27;149280.31;;;1.85;100.00
44926;BME280;30662;51.210;7.656;2023-03-05T00:51:53;149285.31;;;1.87;100.00
44926;BME280;30662;51.210;7.656;2023-03-05T00:54:19;149267.72;;;1.80;100.00
44926;BME280;30662;51.210;7.656;2023-03-05T00:56:45;149285.31;;;1.87;100.00
44926;BME280;30662;51.210;7.656;2023-03-05T00:59:12;149297.91;;;1.92;100.00
44926;BME280;30662;51.210;7.656;2023-03-05T01:01:38;149292.91;;;1.90;100.00
44926;BME280;30662;51.210;7.656;2023-03-05T01:04:04;149300.44;;;1.93;100.00
44926;BME280;30662;51.210;7.656;2023-03-05T01:06:30;149294.16;;;1.91;100.00
44926;BME280;30662;51.210;7.656;2023-03-05T01:08:56;149310.50;;;1.98;100.00
44926;BME280;30662;51.210;7.656;2023-03-05T01:11:22;149305.50;;;1.96;100.00
44926;BME280;30662;51.210;7.656;2023-03-05T01:13:48;149281.56;;;1.86;100.00
44926;BME280;30662;51.210;7.656;2023-03-05T01:16:14;149306.75;;;1.96;100.00
44926;BME280;30662;51.210;7.656;2023-03-05T01:18:40;149319.28;;;2.01;100.00
44926;BME280;30662;51.210;7.656;2023-03-05T01:21:06;149311.75;;;1.98;100.00
44926;BME280;30662;51.210;7.656;2023-03-05T01:23:32;149326.88;;;2.04;100.00
44926;BME280;30662;51.210;7.656;2023-03-05T01:26:00;149321.78;;;2.02;100.00
44926;BME280;30662;51.210;7.656;2023-03-05T01:28:26;149330.63;;;2.06;100.00
44926;BME280;30662;51.210;7.656;2023-03-05T01:30:53;149309.25;;;1.97;100.00
44926;BME280;30662;51.210;7.656;2023-03-05T01:33:18;149306.75;;;1.96;100.00
44926;BME280;30662;51.210;7.656;2023-03-05T01:35:46;149315.53;;;2.00;100.00
44926;BME280;30662;51.210;7.656;2023-03-05T01:38:13;149320.53;;;2.02;100.00
44926;BME280;30662;51.210;7.656;2023-03-05T01:40:40;149291.66;;;1.90;100.00
44926;BME280;30662;51.210;7.656;2023-03-05T01:43:21;149300.44;;;1.93;100.00
44926;BME280;30662;51.210;7.656;2023-03-05T01:46:49;149285.31;;;1.87;100.00
44926;BME280;30662;51.210;7.656;2023-03-05T01:51:30;149281.56;;;1.86;100.00
44926;BME280;30662;51.210;7.656;2023-03-05T01:53:58;149276.53;;;1.84;100.00
44926;BME280;30662;51.210;7.656;2023-03-05T01:56:26;149257.69;;;1.76;100.00
44926;BME280;30662;51.210;7.656;2023-03-05T01:58:54;149257.69;;;1.76;100.00
44926;BME280;30662;51.210;7.656;2023-03-05T02:01:38;149241.34;;;1.70;100.00
44926;BME280;30662;51.210;7.656;2023-03-05T02:04:07;149228.75;;;1.64;100.00
44926;BME280;30662;51.210;7.656;2023-03-05T02:06:34;149237.56;;;1.68;100.00
44926;BME280;30662;51.210;7.656;2023-03-05T02:09:00;149237.56;;;1.68;100.00
44926;BME280;30662;51.210;7.656;2023-03-05T02:11:26;149211.16;;;1.57;100.00
44926;BME280;30662;51.210;7.656;2023-03-05T02:13:51;149218.72;;;1.60;100.00
44926;BME280;30662;51.210;7.656;2023-03-05T02:16:17;149213.66;;;1.58;100.00
44926;BME280;30662;51.210;7.656;2023-03-05T02:18:43;149206.13;;;1.55;100.00
44926;BME280;30662;51.210;7.656;2023-03-05T02:21:10;149211.16;;;1.57;100.00
44926;BME280;30662;51.210;7.656;2023-03-05T02:23:37;149207.38;;;1.56;100.00
44926;BME280;30662;51.210;7.656;2023-03-05T02:26:08;149226.25;;;1.63;100.00
44926;BME280;30662;51.210;7.656;2023-03-05T02:28:53;149213.66;;;1.58;100.00
44926;BME280;30662;51.210;7.656;2023-03-05T02:31:23;149202.38;;;1.54;100.00
44926;BME280;30662;51.210;7.656;2023-03-05T02:33:50;149192.28;;;1.50;100.00
44926;BME280;30662;51.210;7.656;2023-03-05T02:36:17;149196.06;;;1.51;100.00
44926;BME280;30662;51.210;7.656;2023-03-05T02:38:44;149198.63;;;1.52;100.00
44926;BME280;30662;51.210;7.656;2023-03-05T02:41:10;149189.78;;;1.49;100.00
44926;BME280;30662;51.210;7.656;2023-03-05T02:43:37;149182.25;;;1.46;100.00
44926;BME280;30662;51.210;7.656;2023-03-05T02:46:03;149170.94;;;1.41;100.00
44926;BME280;30662;51.210;7.656;2023-03-05T02:48:30;149181.00;;;1.45;100.00
44926;BME280;30662;51.210;7.656;2023-03-05T02:50:56;149189.78;;;1.49;100.00
44926;BME280;30662;51.210;7.656;2023-03-05T02:53:22;149201.13;;;1.53;100.00
44926;BME280;30662;51.210;7.656;2023-03-05T02:55:48;149191.03;;;1.49;100.00
44926;BME280;30662;51.210;7.656;2023-03-05T02:58:15;149184.78;;;1.47;100.00
44926;BME280;30662;51.210;7.656;2023-03-05T03:00:42;149162.13;;;1.37;100.00
44926;BME280;30662;51.210;7.656;2023-03-05T03:03:08;149170.94;;;1.41;100.00
44926;BME280;30662;51.210;7.656;2023-03-05T03:05:35;149172.19;;;1.42;100.00
44926;BME280;30662;51.210;7.656;2023-03-05T03:08:01;149148.31;;;1.32;100.00
44926;BME280;30662;51.210;7.656;2023-03-05T03:10:27;149158.34;;;1.36;100.00
44926;BME280;30662;51.210;7.656;2023-03-05T03:12:53;149131.97;;;1.25;100.00
44926;BME280;30662;51.210;7.656;2023-03-05T03:15:20;149140.75;;;1.29;100.00
44926;BME280;30662;51.210;7.656;2023-03-05T03:17:45;149154.59;;;1.34;100.00
44926;BME280;30662;51.210;7.656;2023-03-05T03:20:13;149134.47;;;1.26;100.00
44926;BME280;30662;51.210;7.656;2023-03-05T03:22:40;149124.41;;;1.22;100.00
44926;BME280;30662;51.210;7.656;2023-03-05T03:25:07;149109.38;;;1.16;100.00
44926;BME280;30662;51.210;7.656;2023-03-05T03:27:33;149103.06;;;1.14;100.00
44926;BME280;30662;51.210;7.656;2023-03-05T03:29:59;149128.22;;;1.24;100.00
44926;BME280;30662;51.210;7.656;2023-03-05T03:32:30;149134.47;;;1.26;100.00
44926;BME280;30662;51.210;7.656;2023-03-05T03:34:56;149147.06;;;1.31;100.00
44926;BME280;30662;51.210;7.656;2023-03-05T03:37:22;149149.56;;;1.32;100.00
44926;BME280;30662;51.210;7.656;2023-03-05T03:39:48;149144.56;;;1.30;100.00
44926;BME280;30662;51.210;7.656;2023-03-05T03:42:19;149147.06;;;1.31;100.00
44926;BME280;30662;51.210;7.656;2023-03-05T03:44:46;149164.66;;;1.38;100.00
44926;BME280;30662;51.210;7.656;2023-03-05T03:47:13;149143.25;;;1.30;100.00
44926;BME280;30662;51.210;7.656;2023-03-05T03:49:38;149131.97;;;1.25;100.00
44926;BME280;30662;51.210;7.656;2023-03-05T03:52:05;149124.41;;;1.22;100.00
44926;BME280;30662;51.210;7.656;2023-03-05T03:54:31;149108.06;;;1.16;100.00
44926;BME280;30662;51.210;7.656;2023-03-05T03:56:57;149135.75;;;1.27;100.00
44926;BME280;30662;51.210;7.656;2023-03-05T03:59:23;149121.91;;;1.21;100.00
44926;BME280;30662;51.210;7.656;2023-03-05T04:01:49;149125.66;;;1.23;100.00
44926;BME280;30662;51.210;7.656;2023-03-05T04:04:15;149144.56;;;1.30;100.00
44926;BME280;30662;51.210;7.656;2023-03-05T04:06:41;149138.25;;;1.28;100.00
44926;BME280;30662;51.210;7.656;2023-03-05T04:09:08;149124.41;;;1.22;100.00
44926;BME280;30662;51.210;7.656;2023-03-05T04:11:35;149121.91;;;1.21;100.00
44926;BME280;30662;51.210;7.656;2023-03-05T04:14:02;149124.41;;;1.22;100.00
44926;BME280;30662;51.210;7.656;2023-03-05T04:16:29;149143.25;;;1.30;100.00
44926;BME280;30662;51.210;7.656;2023-03-05T04:18:54;149120.66;;;1.21;100.00
44926;BME280;30662;51.210;7.656;2023-03-05T04:21:20;149111.88;;;1.17;100.00
44926;BME280;30662;51.210;7.656;2023-03-05T04:23:46;149108.06;;;1.16;100.00
44926;BME280;30662;51.210;7.656;2023-03-05T04:26:12;149099.28;;;1.12;100.00
44926;BME280;30662;51.210;7.656;2023-03-05T04:28:38;149106.81;;;1.15;100.00
44926;BME280;30662;51.210;7.656;2023-03-05T04:31:04;149094.28;;;1.10;100.00
44926;BME280;30662;51.210;7.656;2023-03-05T04:33:30;149093.03;;;1.09;100.00
44926;BME280;30662;51.210;7.656;2023-03-05T04:35:56;149109.38;;;1.16;100.00
44926;BME280;30662;51.210;7.656;2023-03-05T04:38:22;149119.41;;;1.20;100.00
44926;BME280;30662;51.210;7.656;2023-03-05T04:40:48;149149.56;;;1.32;100.00
44926;BME280;30662;51.210;7.656;2023-03-05T04:43:14;149121.91;;;1.21;100.00
44926;BME280;30662;51.210;7.656;2023-03-05T04:45:41;149148.31;;;1.32;100.00
44926;BME280;30662;51.210;7.656;2023-03-05T04:48:08;149118.16;;;1.20;100.00
44926;BME280;30662;51.210;7.656;2023-03-05T04:50:35;149118.16;;;1.20;100.00
44926;BME280;30662;51.210;7.656;2023-03-05T04:53:01;149158.34;;;1.36;100.00
44926;BME280;30662;51.210;7.656;2023-03-05T04:55:28;149138.25;;;1.28;100.00
44926;BME280;30662;51.210;7.656;2023-03-05T04:57:54;149089.22;;;1.08;100.00
44926;BME280;30662;51.210;7.656;2023-03-05T05:00:20;149100.56;;;1.13;100.00
44926;BME280;30662;51.210;7.656;2023-03-05T05:02:48;149086.72;;;1.07;100.00
44926;BME280;30662;51.210;7.656;2023-03-05T05:05:18;149050.28;;;0.92;100.00
44926;BME280;30662;51.210;7.656;2023-03-05T05:07:44;149071.63;;;1.01;100.00
44926;BME280;30662;51.210;7.656;2023-03-05T05:10:11;149060.34;;;0.96;100.00
44926;BME280;30662;51.210;7.656;2023-03-05T05:12:37;149085.47;;;1.06;100.00
44926;BME280;30662;51.210;7.656;2023-03-05T05:15:06;149071.63;;;1.01;100.00
44926;BME280;30662;51.210;7.656;2023-03-05T05:17:33;149071.63;;;1.01;100.00
44926;BME280;30662;51.210;7.656;2023-03-05T05:20:00;149084.22;;;1.06;100.00
44926;BME280;30662;51.210;7.656;2023-03-05T05:22:27;149086.72;;;1.07;100.00
44926;BME280;30662;51.210;7.656;2023-03-05T05:24:54;149118.16;;;1.20;100.00
44926;BME280;30662;51.210;7.656;2023-03-05T05:27:20;149094.28;;;1.10;100.00
44926;BME280;30662;51.210;7.656;2023-03-05T05:29:46;149105.56;;;1.15;100.00
44926;BME280;30662;51.210;7.656;2023-03-05T05:32:16;149099.28;;;1.12;100.00
44926;BME280;30662;51.210;7.656;2023-03-05T05:34:42;149093.03;;;1.09;100.00
44926;BME280;30662;51.210;7.656;2023-03-05T05:37:08;149056.59;;;0.95;100.00
44926;BME280;30662;51.210;7.656;2023-03-05T05:39:34;149052.78;;;0.93;100.00
44926;BME280;30662;51.210;7.656;2023-03-05T05:42:00;149082.94;;;1.05;100.00
44926;BME280;30662;51.210;7.656;2023-03-05T05:44:26;149062.84;;;0.97;100.00
44926;BME280;30662;51.210;7.656;2023-03-05T05:46:52;149051.53;;;0.93;100.00
44926;BME280;30662;51.210;7.656;2023-03-05T05:49:18;149044.00;;;0.90;100.00
44926;BME280;30662;51.210;7.656;2023-03-05T05:51:44;149061.59;;;0.97;100.00
44926;BME280;30662;51.210;7.656;2023-03-05T05:54:14;149074.19;;;1.02;100.00
44926;BME280;30662;51.210;7.656;2023-03-05T05:56:40;149052.78;;;0.93;100.00
44926;BME280;30662;51.210;7.656;2023-03-05T05:59:07;149057.84;;;0.95;100.00
44926;BME280;30662;51.210;7.656;2023-03-05T06:01:33;149059.09;;;0.96;100.00
44926;BME280;30662;51.210;7.656;2023-03-05T06:03:59;149074.19;;;1.02;100.00
44926;BME280;30662;51.210;7.656;2023-03-05T06:06:26;149064.09;;;0.98;100.00
44926;BME280;30662;51.210;7.656;2023-03-05T06:08:52;149059.09;;;0.96;100.00
44926;BME280;30662;51.210;7.656;2023-03-05T06:11:19;149066.63;;;0.99;100.00
44926;BME280;30662;51.210;7.656;2023-03-05T06:13:46;149072.88;;;1.01;100.00
44926;BME280;30662;51.210;7.656;2023-03-05T06:16:18;149074.19;;;1.02;100.00
44926;BME280;30662;51.210;7.656;2023-03-05T06:18:44;149075.44;;;1.02;100.00
44926;BME280;30662;51.210;7.656;2023-03-05T06:21:13;149041.50;;;0.89;100.00
44926;BME280;30662;51.210;7.656;2023-03-05T06:23:40;149054.03;;;0.94;100.00
44926;BME280;30662;51.210;7.656;2023-03-05T06:26:07;149062.84;;;0.97;100.00
44926;BME280;30662;51.210;7.656;2023-03-05T06:28:37;149044.00;;;0.90;100.00
44926;BME280;30662;51.210;7.656;2023-03-05T06:31:05;149064.09;;;0.98;100.00
44926;BME280;30662;51.210;7.656;2023-03-05T06:33:32;149062.84;;;0.97;100.00
44926;BME280;30662;51.210;7.656;2023-03-05T06:35:58;149067.88;;;0.99;100.00
44926;BME280;30662;51.210;7.656;2023-03-05T06:38:25;149070.38;;;1.00;100.00
44926;BME280;30662;51.210;7.656;2023-03-05T06:40:51;149041.50;;;0.89;100.00
44926;BME280;30662;51.210;7.656;2023-03-05T06:43:17;149051.53;;;0.93;100.00
44926;BME280;30662;51.210;7.656;2023-03-05T06:45:43;149040.25;;;0.88;100.00
44926;BME280;30662;51.210;7.656;2023-03-05T06:48:09;149049.03;;;0.92;100.00
44926;BME280;30662;51.210;7.656;2023-03-05T06:50:36;149040.25;;;0.88;100.00
44926;BME280;30662;51.210;7.656;2023-03-05T06:53:02;149056.59;;;0.95;100.00
44926;BME280;30662;51.210;7.656;2023-03-05T06:55:28;149040.25;;;0.88;100.00
44926;BME280;30662;51.210;7.656;2023-03-05T06:57:54;149042.75;;;0.89;100.00
44926;BME280;30662;51.210;7.656;2023-03-05T07:00:21;149056.59;;;0.95;100.00
44926;BME280;30662;51.210;7.656;2023-03-05T07:02:46;149061.59;;;0.97;100.00
44926;BME280;30662;51.210;7.656;2023-03-05T07:05:13;149035.19;;;0.86;100.00
44926;BME280;30662;51.210;7.656;2023-03-05T07:07:38;149046.50;;;0.91;100.00
44926;BME280;30662;51.210;7.656;2023-03-05T07:10:05;149070.38;;;1.00;100.00
44926;BME280;30662;51.210;7.656;2023-03-05T07:12:34;149054.03;;;0.94;100.00
44926;BME280;30662;51.210;7.656;2023-03-05T07:15:00;149041.50;;;0.89;100.00
44926;BME280;30662;51.210;7.656;2023-03-05T07:17:26;149039.00;;;0.88;100.00
44926;BME280;30662;51.210;7.656;2023-03-05T07:19:52;149077.94;;;1.03;100.00
44926;BME280;30662;51.210;7.656;2023-03-05T07:22:18;149075.44;;;1.02;100.00
44926;BME280;30662;51.210;7.656;2023-03-05T07:24:46;149076.69;;;1.03;100.00
44926;BME280;30662;51.210;7.656;2023-03-05T07:27:12;149076.69;;;1.03;100.00
44926;BME280;30662;51.210;7.656;2023-03-05T07:29:37;149081.69;;;1.05;100.00
44926;BME280;30662;51.210;7.656;2023-03-05T07:32:04;149069.13;;;1.00;100.00
44926;BME280;30662;51.210;7.656;2023-03-05T07:34:30;149084.22;;;1.06;100.00
44926;BME280;30662;51.210;7.656;2023-03-05T07:36:56;149072.88;;;1.01;100.00
44926;BME280;30662;51.210;7.656;2023-03-05T07:39:22;149046.50;;;0.91;100.00
44926;BME280;30662;51.210;7.656;2023-03-05T07:41:48;149026.41;;;0.82;100.00
44926;BME280;30662;51.210;7.656;2023-03-05T07:44:16;149057.84;;;0.95;100.00
44926;BME280;30662;51.210;7.656;2023-03-05T07:46:42;149067.88;;;0.99;100.00
44926;BME280;30662;51.210;7.656;2023-03-05T07:49:08;149057.84;;;0.95;100.00
44926;BME280;30662;51.210;7.656;2023-03-05T07:51:34;149061.59;;;0.97;100.00
44926;BME280;30662;51.210;7.656;2023-03-05T07:54:00;149071.63;;;1.01;100.00
44926;BME280;30662;51.210;7.656;2023-03-05T07:56:32;149054.03;;;0.94;100.00
44926;BME280;30662;51.210;7.656;2023-03-05T07:59:02;149057.84;;;0.95;100.00
44926;BME280;30662;51.210;7.656;2023-03-05T08:01:29;149046.50;;;0.91;100.00
44926;BME280;30662;51.210;7.656;2023-03-05T08:03:55;149054.03;;;0.94;100.00
44926;BME280;30662;51.210;7.656;2023-03-05T08:06:22;149039.00;;;0.88;100.00
44926;BME280;30662;51.210;7.656;2023-03-05T08:08:48;149064.09;;;0.98;100.00
44926;BME280;30662;51.210;7.656;2023-03-05T08:11:14;149080.44;;;1.04;100.00
44926;BME280;30662;51.210;7.656;2023-03-05T08:13:42;149062.84;;;0.97;100.00
44926;BME280;30662;51.210;7.656;2023-03-05T08:16:11;149071.63;;;1.01;100.00
44926;BME280;30662;51.210;7.656;2023-03-05T08:18:37;149082.94;;;1.05;100.00
44926;BME280;30662;51.210;7.656;2023-03-05T08:21:03;149082.94;;;1.05;100.00
44926;BME280;30662;51.210;7.656;2023-03-05T08:23:30;149077.94;;;1.03;100.00
44926;BME280;30662;51.210;7.656;2023-03-05T08:25:55;149087.97;;;1.07;100.00
44926;BME280;30662;51.210;7.656;2023-03-05T08:28:22;149080.44;;;1.04;100.00
44926;BME280;30662;51.210;7.656;2023-03-05T08:30:48;149082.94;;;1.05;100.00
44926;BME280;30662;51.210;7.656;2023-03-05T08:33:14;149082.94;;;1.05;100.00
44926;BME280;30662;51.210;7.656;2023-03-05T08:35:42;149084.22;;;1.06;100.00
44926;BME280;30662;51.210;7.656;2023-03-05T08:38:08;149090.47;;;1.08;100.00
44926;BME280;30662;51.210;7.656;2023-03-05T08:40:34;149077.94;;;1.03;100.00
44926;BME280;30662;51.210;7.656;2023-03-05T08:43:00;149079.19;;;1.04;100.00
44926;BME280;30662;51.210;7.656;2023-03-05T08:45:26;149089.22;;;1.08;100.00
44926;BME280;30662;51.210;7.656;2023-03-05T08:47:54;149109.38;;;1.16;100.00
44926;BME280;30662;51.210;7.656;2023-03-05T08:50:22;149084.22;;;1.06;100.00
44926;BME280;30662;51.210;7.656;2023-03-05T08:52:49;149098.03;;;1.12;100.00
44926;BME280;30662;51.210;7.656;2023-03-05T08:55:15;149106.81;;;1.15;100.00
44926;BME280;30662;51.210;7.656;2023-03-05T08:57:41;149111.88;;;1.17;100.00
44926;BME280;30662;51.210;7.656;2023-03-05T09:00:07;149106.81;;;1.15;100.00
44926;BME280;30662;51.210;7.656;2023-03-05T09:02:35;149103.06;;;1.14;100.00
44926;BME280;30662;51.210;7.656;2023-03-05T09:05:02;149129.47;;;1.24;100.00
44926;BME280;30662;51.210;7.656;2023-03-05T09:07:28;149111.88;;;1.17;100.00
44926;BME280;30662;51.210;7.656;2023-03-05T09:09:54;149154.59;;;1.34;100.00
44926;BME280;30662;51.210;7.656;2023-03-05T09:12:20;149216.22;;;1.59;100.00
44926;BME280;30662;51.210;7.656;2023-03-05T09:14:46;149198.63;;;1.52;100.00
44926;BME280;30662;51.210;7.656;2023-03-05T09:17:12;149167.16;;;1.40;100.00
44926;BME280;30662;51.210;7.656;2023-03-05T09:19:37;149172.19;;;1.42;100.00
44926;BME280;30662;51.210;7.656;2023-03-05T09:22:03;149177.19;;;1.44;100.00
44926;BME280;30662;51.210;7.656;2023-03-05T09:24:29;149204.88;;;1.55;100.00
44926;BME280;30662;51.210;7.656;2023-03-05T09:26:58;149218.72;;;1.60;100.00
44926;BME280;30662;51.210;7.656;2023-03-05T09:29:25;149217.47;;;1.60;100.00
44926;BME280;30662;51.210;7.656;2023-03-05T09:31:52;149223.75;;;1.62;100.00
44926;BME280;30662;51.210;7.656;2023-03-05T09:34:18;149179.72;;;1.45;100.00
44926;BME280;30662;51.210;7.656;2023-03-05T09:36:44;149184.78;;;1.47;100.00
44926;BME280;30662;51.210;7.656;2023-03-05T09:39:12;149232.50;;;1.66;100.00
44926;BME280;30662;51.210;7.656;2023-03-05T09:50:32;149177.19;;;1.44;100.00
44926;BME280;30662;51.210;7.656;2023-03-05T09:55:54;149113.13;;;1.18;100.00
44926;BME280;30662;51.210;7.656;2023-03-05T09:58:41;149143.25;;;1.30;100.00
44926;BME280;30662;51.210;7.656;2023-03-05T10:01:22;149172.19;;;1.42;100.00
44926;BME280;30662;51.210;7.656;2023-03-05T10:14:40;149212.41;;;1.58;100.00
44926;BME280;30662;51.210;7.656;2023-03-05T10:20:19;149184.78;;;1.47;100.00
44926;BME280;30662;51.210;7.656;2023-03-05T10:28:34;149172.19;;;1.42;100.00
44926;BME280;30662;51.210;7.656;2023-03-05T10:37:27;149129.47;;;1.24;100.00
44926;BME280;30662;51.210;7.656;2023-03-05T10:43:12;149131.97;;;1.25;100.00
44926;BME280;30662;51.210;7.656;2023-03-05T10:45:42;149138.25;;;1.28;100.00
44926;BME280;30662;51.210;7.656;2023-03-05T10:50:51;149129.47;;;1.24;100.00
44926;BME280;30662;51.210;7.656;2023-03-05T10:53:34;149162.13;;;1.37;100.00
44926;BME280;30662;51.210;7.656;2023-03-05T10:56:02;149139.50;;;1.28;100.00
44926;BME280;30662;51.210;7.656;2023-03-05T10:58:41;149187.28;;;1.48;100.00
44926;BME280;30662;51.210;7.656;2023-03-05T11:03:48;149143.25;;;1.30;100.00
44926;BME280;30662;51.210;7.656;2023-03-05T11:06:14;149139.50;;;1.28;100.00
44926;BME280;30662;51.210;7.656;2023-03-05T11:08:41;149149.56;;;1.32;100.00
44926;BME280;30662;51.210;7.656;2023-03-05T11:13:35;149169.69;;;1.41;100.00
44926;BME280;30662;51.210;7.656;2023-03-05T11:16:04;149202.38;;;1.54;100.00
44926;BME280;30662;51.210;7.656;2023-03-05T11:18:32;149223.75;;;1.62;100.00
44926;BME280;30662;51.210;7.656;2023-03-05T11:21:11;149181.00;;;1.45;100.00
44926;BME280;30662;51.210;7.656;2023-03-05T11:23:38;149187.28;;;1.48;100.00
44926;BME280;30662;51.210;7.656;2023-03-05T11:33:29;149169.69;;;1.41;100.00
44926;BME280;30662;51.210;7.656;2023-03-05T11:36:32;149189.78;;;1.49;100.00
44926;BME280;30662;51.210;7.656;2023-03-05T11:39:22;149196.06;;;1.51;100.00
44926;BME280;30662;51.210;7.656;2023-03-05T11:49:45;149296.66;;;1.92;100.00
44926;BME280;30662;51.210;7.656;2023-03-05T11:52:23;149300.44;;;1.93;100.00
44926;BME280;30662;51.210;7.656;2023-03-05T11:57:49;149364.59;;;2.19;100.00
44926;BME280;30662;51.210;7.656;2023-03-05T12:00:27;149353.25;;;2.15;100.00
44926;BME280;30662;51.210;7.656;2023-03-05T12:02:57;149339.41;;;2.09;100.00
44926;BME280;30662;51.210;7.656;2023-03-05T12:05:28;149377.19;;;2.25;100.00
44926;BME280;30662;51.210;7.656;2023-03-05T12:07:58;149385.97;;;2.28;100.00
44926;BME280;30662;51.210;7.656;2023-03-05T12:10:28;149393.50;;;2.31;100.00
44926;BME280;30662;51.210;7.656;2023-03-05T12:15:49;149418.69;;;2.41;100.00
44926;BME280;30662;51.210;7.656;2023-03-05T12:18:29;149426.22;;;2.44;100.00
44926;BME280;30662;51.210;7.656;2023-03-05T12:23:27;149365.84;;;2.20;100.00
44926;BME280;30662;51.210;7.656;2023-03-05T12:25:56;149318.03;;;2.01;100.00
44926;BME280;30662;51.210;7.656;2023-03-05T12:31:33;149326.88;;;2.04;100.00
44926;BME280;30662;51.210;7.656;2023-03-05T12:34:36;149299.16;;;1.93;100.00
44926;BME280;30662;51.210;7.656;2023-03-05T12:37:13;149281.56;;;1.86;100.00
44926;BME280;30662;51.210;7.656;2023-03-05T12:39:59;149267.72;;;1.80;100.00
44926;BME280;30662;51.210;7.656;2023-03-05T12:55:33;149218.72;;;1.60;100.00
44926;BME280;30662;51.210;7.656;2023-03-05T12:58:03;149232.50;;;1.66;100.00
44926;BME280;30662;51.210;7.656;2023-03-05T13:00:41;149265.22;;;1.79;100.00
44926;BME280;30662;51.210;7.656;2023-03-05T13:03:11;149277.81;;;1.84;100.00
44926;BME280;30662;51.210;7.656;2023-03-05T13:05:48;149274.03;;;1.83;100.00
44926;BME280;30662;51.210;7.656;2023-03-05T13:08:29;149302.94;;;1.94;100.00
44926;BME280;30662;51.210;7.656;2023-03-05T13:10:59;149326.88;;;2.04;100.00
44926;BME280;30662;51.210;7.656;2023-03-05T13:13:28;149328.13;;;2.05;100.00
44926;BME280;30662;51.210;7.656;2023-03-05T13:15:55;149329.38;;;2.05;100.00
44926;BME280;30662;51.210;7.656;2023-03-05T13:18:24;149329.38;;;2.05;100.00
44926;BME280;30662;51.210;7.656;2023-03-05T13:21:05;149345.72;;;2.12;100.00
44926;BME280;30662;51.210;7.656;2023-03-05T13:23:33;149396.06;;;2.32;100.00
44926;BME280;30662;51.210;7.656;2023-03-05T13:26:15;149387.22;;;2.29;100.00
44926;BME280;30662;51.210;7.656;2023-03-05T13:29:05;149392.25;;;2.31;100.00
44926;BME280;30662;51.210;7.656;2023-03-05T13:31:34;149435.03;;;2.48;100.00
44926;BME280;30662;51.210;7.656;2023-03-05T13:39:29;149428.72;;;2.45;100.00
44926;BME280;30662;51.210;7.656;2023-03-05T13:42:00;149469.00;;;2.62;100.00
44926;BME280;30662;51.210;7.656;2023-03-05T13:44:27;149504.25;;;2.76;100.00
44926;BME280;30662;51.210;7.656;2023-03-05T13:47:15;149555.81;;;2.97;100.00
44926;BME280;30662;51.210;7.656;2023-03-05T13:49:42;149611.22;;;3.19;100.00
44926;BME280;30662;51.210;7.656;2023-03-05T13:52:09;149637.66;;;3.30;100.00
44926;BME280;30662;51.210;7.656;2023-03-05T13:54:35;149640.16;;;3.31;100.00
44926;BME280;30662;51.210;7.656;2023-03-05T13:57:03;149662.81;;;3.40;100.00
44926;BME280;30662;51.210;7.656;2023-03-05T13:59:32;149684.25;;;3.49;100.00
44926;BME280;30662;51.210;7.656;2023-03-05T14:02:00;149739.66;;;3.71;100.00
44926;BME280;30662;51.210;7.656;2023-03-05T14:04:29;149776.19;;;3.86;100.00
44926;BME280;30662;51.210;7.656;2023-03-05T14:07:04;149714.44;;;3.61;100.00
44926;BME280;30662;51.210;7.656;2023-03-05T14:09:44;149662.81;;;3.40;100.00
44926;BME280;30662;51.210;7.656;2023-03-05T14:12:35;149616.25;;;3.21;100.00
44926;BME280;30662;51.210;7.656;2023-03-05T14:15:18;149613.75;;;3.20;100.00
44926;BME280;30662;51.210;7.656;2023-03-05T14:17:45;149558.38;;;2.98;100.00
44926;BME280;30662;51.210;7.656;2023-03-05T14:22:42;149495.41;;;2.72;100.00
44926;BME280;30662;51.210;7.656;2023-03-05T14:27:55;149497.94;;;2.73;100.00
44926;BME280;30662;51.210;7.656;2023-03-05T14:30:23;149501.69;;;2.75;100.00
44926;BME280;30662;51.210;7.656;2023-03-05T14:32:52;149497.94;;;2.73;100.00
44926;BME280;30662;51.210;7.656;2023-03-05T14:35:24;149476.53;;;2.65;100.00
44926;BME280;30662;51.210;7.656;2023-03-05T14:37:53;149479.06;;;2.66;100.00